Time;durP1;ratioP1;P1;durP2;ratioP2;P2;SDS_P1;SDS_P2;PMS_P1;PMS_P2;Temp;Humidity;BMP_temperature;BMP_pressure;BME280_temperature;BME280_humidity;BME280_pressure;Samples;Min_cycle;Max_cycle;Signal;HPM_P1;HPM_P2
2023/10/17 00:01:00;;;;;;;12.70;2.70;;;;;;;3.31;100.00;100136.20;109613;1251;67747;-63
2023/10/17 00:03:46;;;;;;;10.50;2.90;;;;;;;3.34;100.00;100133.10;109599;1251;72477;-61
2023/10/17 00:06:33;;;;;;;8.20;2.80;;;;;;;3.35;100.00;100136.55;109584;1251;58540;-63
2023/10/17 00:09:24;;;;;;;8.40;2.80;;;;;;;3.37;100.00;100138.20;109644;1251;60433;-63
2023/10/17 00:15:09;;;;;;;9.20;2.20;;;;;;;3.39;100.00;100140.05;109607;1251;67671;-62
2023/10/17 00:18:02;;;;;;;10.40;2.40;;;;;;;3.38;100.00;100134.46;109633;1251;72837;-63
2023/10/17 00:20:50;;;;;;;9.60;2.60;;;;;;;3.38;100.00;100134.14;109614;1251;57406;-62
2023/10/17 00:23:39;;;;;;;9.50;2.70;;;;;;;3.36;100.00;100128.93;109606;1251;60074;-63
2023/10/17 00:26:25;;;;;;;6.50;2.00;;;;;;;3.36;100.00;100131.42;108083;1251;1002304;-62
2023/10/17 00:29:13;;;;;;;8.70;2.60;;;;;;;3.38;100.00;100133.45;109638;1251;68079;-62
2023/10/17 00:31:59;;;;;;;8.20;2.40;;;;;;;3.38;100.00;100134.85;109573;1251;72610;-63
2023/10/17 00:34:46;;;;;;;9.20;2.30;;;;;;;3.39;100.00;100135.30;109596;1251;60339;-62
2023/10/17 00:37:33;;;;;;;11.30;2.40;;;;;;;3.40;100.00;100137.73;109642;1251;60148;-64
2023/10/17 00:40:34;;;;;;;7.80;2.20;;;;;;;3.40;100.00;100137.56;109636;1251;72912;-62
2023/10/17 00:43:23;;;;;;;7.90;2.30;;;;;;;3.37;100.00;100136.27;109431;1251;65706;-63
2023/10/17 00:46:09;;;;;;;8.50;2.30;;;;;;;3.34;100.00;100136.94;109608;1251;72329;-63
2023/10/17 00:49:04;;;;;;;6.80;2.10;;;;;;;3.32;100.00;100136.50;109580;1251;57632;-63
2023/10/17 00:51:55;;;;;;;9.00;2.40;;;;;;;3.30;100.00;100135.02;109600;1251;60650;-62
2023/10/17 00:54:44;;;;;;;9.60;2.20;;;;;;;3.25;100.00;100128.23;109643;1251;72801;-65
2023/10/17 00:57:31;;;;;;;7.90;2.00;;;;;;;3.29;100.00;100133.85;109522;1251;66975;-63
2023/10/17 01:00:35;;;;;;;8.10;2.30;;;;;;;3.30;100.00;100137.49;109580;1251;72392;-62
2023/10/17 01:03:24;;;;;;;9.10;2.30;;;;;;;3.28;100.00;100133.89;109575;1251;57383;-62
2023/10/17 01:09:18;;;;;;;8.10;2.20;;;;;;;3.23;100.00;100131.99;109639;1251;72831;-66
2023/10/17 01:12:11;;;;;;;7.80;2.50;;;;;;;3.22;100.00;100136.44;109540;1251;67372;-61
2023/10/17 01:14:59;;;;;;;7.50;1.70;;;;;;;3.21;100.00;100141.05;109499;1251;72752;-62
2023/10/17 01:17:45;;;;;;;8.50;2.60;;;;;;;3.20;100.00;100137.44;109634;1251;58677;-62
2023/10/17 01:20:34;;;;;;;9.20;3.00;;;;;;;3.20;100.00;100130.60;109671;1251;59264;-62
2023/10/17 01:23:20;;;;;;;8.60;2.30;;;;;;;3.20;100.00;100129.53;109629;1251;73807;-63
2023/10/17 01:26:14;;;;;;;8.40;2.00;;;;;;;3.21;100.00;100132.48;109494;1251;69332;-62
2023/10/17 01:29:02;;;;;;;7.60;2.10;;;;;;;3.21;100.00;100131.40;109559;1251;72725;-62
2023/10/17 01:31:50;;;;;;;10.50;2.20;;;;;;;3.22;100.00;100131.89;109653;1251;57337;-62
2023/10/17 01:34:39;;;;;;;7.30;1.90;;;;;;;3.22;100.00;100129.41;109652;1251;60251;-63
2023/10/17 01:37:27;;;;;;;7.60;2.00;;;;;;;3.21;100.00;100129.45;109654;1251;73898;-62
2023/10/17 01:40:26;;;;;;;7.10;1.80;;;;;;;3.20;100.00;100126.36;109530;1251;67816;-62
2023/10/17 01:43:12;;;;;;;8.20;2.20;;;;;;;3.20;100.00;100131.12;109553;1252;72680;-64
2023/10/17 01:45:58;;;;;;;7.90;1.90;;;;;;;3.19;100.00;100129.41;109593;1251;58438;-62
2023/10/17 01:48:47;;;;;;;6.40;1.80;;;;;;;3.20;100.00;100134.79;109475;1251;61475;-65
2023/10/17 01:51:34;;;;;;;8.60;1.90;;;;;;;3.21;100.00;100134.89;109625;1251;73480;-63
2023/10/17 01:54:21;;;;;;;7.20;2.20;;;;;;;3.21;100.00;100132.63;109482;1251;67933;-63
2023/10/17 01:57:08;;;;;;;6.80;2.00;;;;;;;3.21;100.00;100137.52;109625;1251;72143;-62
2023/10/17 01:59:54;;;;;;;7.70;1.80;;;;;;;3.20;100.00;100137.60;109619;1251;59788;-62
2023/10/17 02:02:42;;;;;;;8.50;2.30;;;;;;;3.20;100.00;100137.27;109526;1251;58886;-62
2023/10/17 02:05:29;;;;;;;8.80;2.10;;;;;;;3.18;100.00;100130.81;109631;1251;71534;-63
2023/10/17 02:08:16;;;;;;;7.60;2.10;;;;;;;3.16;100.00;100127.95;109610;1251;66423;-63
2023/10/17 02:11:02;;;;;;;7.40;2.50;;;;;;;3.13;100.00;100129.84;109603;1251;72533;-62
2023/10/17 02:13:48;;;;;;;10.50;2.50;;;;;;;3.09;100.00;100127.75;109559;1251;59555;-62
2023/10/17 02:16:35;;;;;;;8.20;2.10;;;;;;;3.03;100.00;100124.86;109615;1251;61350;-63
2023/10/17 02:19:23;;;;;;;9.00;2.30;;;;;;;3.03;100.00;100134.52;109573;1251;74077;-63
2023/10/17 02:22:09;;;;;;;9.20;2.00;;;;;;;3.00;100.00;100135.84;109602;1251;68990;-62
2023/10/17 02:24:57;;;;;;;8.60;2.20;;;;;;;2.99;100.00;100137.31;109603;1251;72765;-62
2023/10/17 02:27:44;;;;;;;8.20;1.90;;;;;;;2.98;100.00;100137.88;109603;1251;60129;-63
2023/10/17 02:30:30;;;;;;;7.20;2.40;;;;;;;2.97;100.00;100137.93;109586;1251;58821;-63
2023/10/17 02:33:17;;;;;;;8.10;2.10;;;;;;;2.95;100.00;100143.10;109641;1251;73869;-63
2023/10/17 02:36:09;;;;;;;7.90;2.30;;;;;;;2.93;100.00;100148.11;109681;1251;67895;-63
2023/10/17 02:38:56;;;;;;;6.70;2.30;;;;;;;2.93;100.00;100153.70;109611;1255;73478;-63
2023/10/17 02:41:46;;;;;;;8.40;2.20;;;;;;;2.89;100.00;100155.45;109557;1251;57244;-62
2023/10/17 02:44:32;;;;;;;9.00;2.20;;;;;;;2.86;100.00;100154.38;109499;1251;58965;-64
2023/10/17 02:47:20;;;;;;;8.40;2.20;;;;;;;2.81;100.00;100150.89;109630;1251;72938;-64
2023/10/17 02:50:21;;;;;;;7.10;2.20;;;;;;;2.79;100.00;100151.38;109638;1251;67975;-61
2023/10/17 02:53:14;;;;;;;6.90;2.10;;;;;;;2.76;100.00;100149.91;109647;1251;72509;-62
2023/10/17 02:56:18;;;;;;;12.00;2.50;;;;;;;2.74;100.00;100152.62;108788;1251;1002182;-62
2023/10/17 02:59:10;;;;;;;8.50;2.10;;;;;;;2.71;100.00;100154.83;109631;1251;59907;-63
2023/10/17 03:01:57;;;;;;;8.30;2.00;;;;;;;2.70;100.00;100158.89;109373;1252;74313;-63
2023/10/17 03:04:43;;;;;;;7.40;2.30;;;;;;;2.70;100.00;100163.48;109508;1251;67196;-64
2023/10/17 03:07:30;;;;;;;9.00;2.50;;;;;;;2.70;100.00;100165.92;109608;1251;72441;-62
2023/10/17 03:13:23;;;;;;;5.60;1.60;;;;;;;2.72;100.00;100176.70;109631;1251;59192;-63
2023/10/17 03:16:17;;;;;;;8.00;2.50;;;;;;;2.69;100.00;100171.56;109637;1251;73806;-62
2023/10/17 03:19:07;;;;;;;8.60;2.50;;;;;;;2.68;100.00;100171.61;109477;1251;68844;-64
2023/10/17 03:21:58;;;;;;;6.40;2.20;;;;;;;2.65;100.00;100168.25;109524;1251;71309;-61
2023/10/17 03:24:51;;;;;;;6.60;2.30;;;;;;;2.63;100.00;100167.97;109593;1251;58830;-62
2023/10/17 03:27:47;;;;;;;7.90;2.50;;;;;;;2.62;100.00;100168.92;109487;1251;59007;-61
2023/10/17 03:30:35;;;;;;;9.20;2.50;;;;;;;2.60;100.00;100163.02;109503;1251;73809;-62
2023/10/17 03:33:32;;;;;;;7.00;2.10;;;;;;;2.59;100.00;100160.48;109426;1251;67880;-65
2023/10/17 03:37:26;;;;;;;6.00;2.00;;;;;;;2.58;100.00;100162.45;109597;1251;71144;-63
2023/10/17 03:39:50;;;;;;;7.40;2.00;;;;;;;2.58;100.00;100162.75;109516;1251;57414;-64
2023/10/17 03:45:25;;;;;;;8.90;2.30;;;;;;;2.54;100.00;100164.66;109617;1251;73348;-62
2023/10/17 03:48:15;;;;;;;6.90;2.30;;;;;;;2.54;100.00;100167.14;109564;1251;66552;-64
2023/10/17 03:51:08;;;;;;;8.00;2.40;;;;;;;2.54;100.00;100165.38;109565;1255;71520;-62
2023/10/17 03:54:28;;;;;;;8.20;2.30;;;;;;;2.50;100.00;100162.58;109546;1254;58697;-62
2023/10/17 03:57:15;;;;;;;8.40;2.70;;;;;;;2.55;100.00;100173.20;109561;1251;61120;-64
2023/10/17 04:00:17;;;;;;;7.00;1.90;;;;;;;2.56;100.00;100173.55;109539;1251;72993;-65
2023/10/17 04:03:08;;;;;;;7.40;2.20;;;;;;;2.54;100.00;100171.31;109553;1253;67804;-63
2023/10/17 04:08:56;;;;;;;9.20;2.50;;;;;;;2.53;100.00;100166.48;109598;1251;58621;-63
2023/10/17 04:11:46;;;;;;;9.60;2.00;;;;;;;2.53;100.00;100169.44;109602;1251;59874;-62
2023/10/17 04:14:50;;;;;;;6.50;1.80;;;;;;;2.51;100.00;100167.79;109557;1251;73122;-64
2023/10/17 04:17:36;;;;;;;10.20;2.10;;;;;;;2.54;100.00;100172.23;109573;1252;66638;-64
2023/10/17 04:20:23;;;;;;;9.10;2.00;;;;;;;2.54;100.00;100177.48;109557;1251;72662;-63
2023/10/17 04:23:21;;;;;;;8.30;2.40;;;;;;;2.54;100.00;100178.69;109519;1256;58630;-63
2023/10/17 04:26:17;;;;;;;7.30;2.10;;;;;;;2.55;100.00;100179.19;109489;1253;61146;-62
2023/10/17 04:29:13;;;;;;;12.30;2.70;;;;;;;2.56;100.00;100183.17;109579;1251;73267;-61
2023/10/17 04:32:01;;;;;;;7.00;2.00;;;;;;;2.57;100.00;100181.04;109501;1251;68020;-62
2023/10/17 04:34:48;;;;;;;6.30;2.10;;;;;;;2.58;100.00;100181.70;109540;1251;71030;-67
2023/10/17 04:37:37;;;;;;;7.00;2.30;;;;;;;2.57;100.00;100180.48;109590;1251;58203;-64
2023/10/17 04:40:37;;;;;;;8.30;2.00;;;;;;;2.57;100.00;100184.01;109462;1251;58413;-64
2023/10/17 04:44:15;;;;;;;7.50;2.10;;;;;;;2.53;100.00;100183.82;109617;1251;70945;-63
2023/10/17 04:46:49;;;;;;;8.20;2.50;;;;;;;2.50;100.00;100193.77;109561;1254;66327;-63
2023/10/17 04:49:36;;;;;;;7.60;2.40;;;;;;;2.49;100.00;100187.16;109508;1251;72423;-63
2023/10/17 04:52:40;;;;;;;8.80;2.60;;;;;;;2.49;100.00;100186.61;109439;1254;59246;-62
2023/10/17 04:55:40;;;;;;;8.00;2.20;;;;;;;2.49;100.00;100188.02;109553;1251;60062;-65
2023/10/17 04:58:40;;;;;;;8.60;2.30;;;;;;;2.50;100.00;100192.89;109355;1251;71466;-64
2023/10/17 06:18:56;;;;;;;8.50;2.90;;;;;;;4.10;100.00;100234.50;109513;1254;67735;-63
2023/10/17 06:26:04;;;;;;;10.70;2.70;;;;;;;4.07;100.00;100234.58;109598;1254;57324;-63
2023/10/17 06:28:49;;;;;;;7.70;2.60;;;;;;;4.08;100.00;100233.33;109505;1251;57897;-66
2023/10/17 06:31:34;;;;;;;10.20;2.90;;;;;;;4.10;100.00;100238.84;109560;1251;72975;-63
2023/10/17 06:34:21;;;;;;;10.20;2.50;;;;;;;4.16;100.00;100238.07;109617;1252;66738;-65
2023/10/17 06:37:07;;;;;;;9.00;2.90;;;;;;;4.22;100.00;100237.92;109420;1251;73820;-63
2023/10/17 06:39:58;;;;;;;7.90;2.40;;;;;;;4.31;100.00;100238.73;109305;1253;58704;-63
2023/10/17 06:42:58;;;;;;;6.30;2.30;;;;;;;4.39;100.00;100243.92;109531;1253;60440;-64
2023/10/17 06:46:12;;;;;;;7.60;2.50;;;;;;;4.51;100.00;100249.89;109597;1251;72997;-64
2023/10/17 06:49:08;;;;;;;9.40;3.10;;;;;;;4.62;100.00;100250.89;109578;1251;67592;-64
2023/10/17 06:54:58;;;;;;;10.30;2.90;;;;;;;5.07;100.00;100248.48;109547;1254;60403;-64
2023/10/17 06:57:45;;;;;;;8.90;3.00;;;;;;;5.62;100.00;100250.33;109518;1254;59479;-63
2023/10/17 07:03:37;;;;;;;8.70;2.80;;;;;;;8.55;89.90;100240.20;109565;1254;67551;-64
2023/10/17 07:06:27;;;;;;;9.90;2.80;;;;;;;10.41;85.65;100239.80;109531;1251;72442;-64
2023/10/17 07:09:17;;;;;;;9.20;2.60;;;;;;;12.09;78.77;100235.73;109524;1251;58581;-65
2023/10/17 07:12:13;;;;;;;9.60;2.60;;;;;;;13.60;72.32;100233.21;109483;1251;61008;-64
2023/10/17 07:15:00;;;;;;;7.70;2.30;;;;;;;14.81;64.35;100222.94;109511;1251;73008;-65
2023/10/17 07:17:54;;;;;;;9.90;2.60;;;;;;;15.38;58.98;100221.64;109454;1256;68014;-64
2023/10/17 07:23:48;;;;;;;10.70;4.30;;;;;;;16.46;54.14;100214.09;109547;1251;57886;-73
2023/10/17 07:29:22;;;;;;;11.60;3.70;;;;;;;17.02;51.67;100229.15;109635;1251;74067;-69
2023/10/17 07:32:16;;;;;;;16.50;8.00;;;;;;;17.47;50.22;100231.88;109580;1251;68929;-71
2023/10/17 07:35:04;;;;;;;8.60;2.80;;;;;;;18.26;49.47;100226.60;109614;1251;71126;-71
2023/10/17 07:37:55;;;;;;;16.80;3.00;;;;;;;18.84;45.75;100226.96;109622;1251;57868;-69
2023/10/17 07:40:53;;;;;;;8.10;2.70;;;;;;;19.51;43.72;100220.86;109512;1251;60601;-73
2023/10/17 07:43:57;;;;;;;8.50;2.30;;;;;;;19.79;41.80;100213.52;109485;1254;73093;-68
2023/10/17 07:46:44;;;;;;;7.90;2.30;;;;;;;20.05;41.25;100210.20;109658;1251;66663;-71
2023/10/17 07:49:30;;;;;;;7.60;2.30;;;;;;;20.02;40.08;100210.34;109529;1251;72475;-72
2023/10/17 07:52:17;;;;;;;9.70;2.50;;;;;;;19.96;40.98;100206.06;109345;1251;57785;-71
2023/10/17 07:58:09;;;;;;;7.20;1.90;;;;;;;20.87;39.87;100204.29;109625;1251;71608;-71
2023/10/17 08:00:56;;;;;;;7.60;2.20;;;;;;;21.20;38.51;100196.55;109558;1251;66350;-72
2023/10/17 08:04:13;;;;;;;8.10;2.40;;;;;;;21.55;38.48;100198.04;109625;1251;72569;-71
2023/10/17 08:06:59;;;;;;;8.90;2.40;;;;;;;22.08;37.47;100188.23;109580;1251;57263;-73
2023/10/17 08:09:56;;;;;;;8.90;2.20;;;;;;;22.49;37.14;100182.98;109649;1251;59032;-71
2023/10/17 08:12:42;;;;;;;8.00;2.80;;;;;;;22.41;35.33;100182.63;109455;1251;71861;-72
2023/10/17 08:18:39;;;;;;;8.90;2.60;;;;;;;23.07;35.18;100182.83;109437;1251;72601;-73
2023/10/17 08:24:26;;;;;;;8.80;4.70;;;;;;;22.69;35.23;100186.10;109545;1251;59944;-70
2023/10/17 08:27:17;;;;;;;7.60;2.50;;;;;;;23.00;35.60;100187.34;109775;1255;72937;-71
2023/10/17 08:30:13;;;;;;;8.20;3.40;;;;;;;23.49;34.48;100191.75;109684;1251;67833;-69
2023/10/17 08:35:51;;;;;;;9.60;3.40;;;;;;;23.67;33.71;100198.45;109543;1251;57429;-71
2023/10/17 08:38:40;;;;;;;8.10;3.50;;;;;;;23.97;33.62;100193.95;109581;1251;59999;-72
2023/10/17 08:41:26;;;;;;;8.80;2.30;;;;;;;24.34;33.00;100186.81;109461;1251;72422;-71
2023/10/17 08:44:12;;;;;;;9.10;3.20;;;;;;;24.46;32.34;100184.84;109474;1251;67742;-70
2023/10/17 08:47:01;;;;;;;8.30;2.20;;;;;;;24.64;32.37;100190.06;109644;1251;73655;-71
2023/10/17 08:49:49;;;;;;;7.70;2.00;;;;;;;24.87;31.07;100189.19;109497;1251;57668;-71
2023/10/17 08:52:39;;;;;;;10.20;2.00;;;;;;;25.14;30.77;100189.88;109596;1251;60283;-71
2023/10/17 08:55:27;;;;;;;8.30;2.10;;;;;;;25.30;30.50;100191.05;109200;1251;72929;-71
2023/10/17 08:58:14;;;;;;;7.50;1.90;;;;;;;25.34;30.21;100191.60;109492;1251;67606;-70
2023/10/17 09:01:10;;;;;;;7.20;1.80;;;;;;;25.45;30.46;100189.33;109448;1251;71312;-64
2023/10/17 09:03:57;;;;;;;7.70;1.70;;;;;;;25.74;29.89;100191.18;109410;1251;57298;-64
2023/10/17 09:06:49;;;;;;;6.90;1.80;;;;;;;25.86;29.77;100190.54;109589;1251;60368;-64
2023/10/17 09:09:35;;;;;;;7.60;1.50;;;;;;;25.57;29.64;100189.11;109539;1251;72604;-63
2023/10/17 09:12:24;;;;;;;7.50;1.80;;;;;;;25.81;29.46;100182.77;109557;1251;67872;-64
2023/10/17 09:15:27;;;;;;;7.00;1.60;;;;;;;25.84;28.94;100179.72;109442;1251;72374;-63
2023/10/17 09:18:14;;;;;;;5.70;1.30;;;;;;;25.54;28.91;100183.15;109530;1251;57271;-63
2023/10/17 09:21:04;;;;;;;5.20;1.20;;;;;;;25.53;28.93;100182.46;109608;1251;59071;-64
2023/10/17 09:23:50;;;;;;;5.90;1.30;;;;;;;25.56;28.30;100175.15;109434;1251;72971;-65
2023/10/17 09:26:46;;;;;;;6.30;1.30;;;;;;;25.59;27.78;100179.13;109625;1251;68132;-64
2023/10/17 09:29:47;;;;;;;6.00;1.40;;;;;;;26.09;27.40;100175.30;109545;1251;72998;-66
2023/10/17 09:32:40;;;;;;;6.30;1.20;;;;;;;26.40;26.86;100167.92;109577;1251;57460;-64
2023/10/17 09:35:26;;;;;;;7.20;1.80;;;;;;;26.86;26.21;100170.13;109429;1251;61312;-62
2023/10/17 09:38:13;;;;;;;5.50;1.10;;;;;;;27.21;25.65;100173.31;109422;1253;73855;-62
2023/10/17 09:41:03;;;;;;;5.80;1.20;;;;;;;27.58;25.13;100171.40;109314;1253;67770;-64
2023/10/17 09:44:04;;;;;;;5.80;1.40;;;;;;;27.82;24.66;100168.79;109606;1251;72742;-63
2023/10/17 09:46:59;;;;;;;6.30;1.20;;;;;;;27.97;24.52;100164.13;109572;1251;57876;-63
2023/10/17 09:49:49;;;;;;;6.80;1.30;;;;;;;28.18;23.81;100159.93;109651;1251;60343;-62
2023/10/17 09:52:37;;;;;;;5.80;1.10;;;;;;;28.03;23.49;100157.12;109527;1251;72935;-63
2023/10/17 09:55:24;;;;;;;7.50;2.00;;;;;;;28.24;23.41;100151.51;109631;1251;68867;-65
2023/10/17 09:58:17;;;;;;;6.80;1.70;;;;;;;28.30;23.36;100145.73;109571;1251;72680;-65
2023/10/17 10:01:17;;;;;;;7.20;1.30;;;;;;;28.42;23.43;100143.06;109507;1254;58309;-66
2023/10/17 10:04:03;;;;;;;5.30;1.20;;;;;;;28.61;23.30;100137.86;109565;1251;60186;-64
2023/10/17 10:06:50;;;;;;;6.50;1.30;;;;;;;28.43;23.06;100138.29;109571;1251;74299;-62
2023/10/17 10:09:37;;;;;;;6.40;1.30;;;;;;;27.97;23.26;100138.08;109614;1251;66515;-66
2023/10/17 10:12:23;;;;;;;5.80;1.00;;;;;;;27.83;23.91;100135.88;109615;1251;72561;-62
2023/10/17 10:15:55;;;;;;;5.10;1.00;;;;;;;27.79;24.08;100134.89;109572;1251;57771;-66
2023/10/17 10:18:41;;;;;;;5.20;1.10;;;;;;;27.16;24.46;100133.57;109546;1251;59314;-63
2023/10/17 10:21:58;;;;;;;6.30;1.10;;;;;;;27.32;24.79;100135.95;109622;1251;71490;-65
2023/10/17 10:24:49;;;;;;;6.40;1.20;;;;;;;27.45;24.55;100129.60;109574;1251;67644;-63
2023/10/17 10:27:36;;;;;;;5.90;1.50;;;;;;;26.50;25.01;100135.10;109569;1251;71566;-63
2023/10/17 10:30:40;;;;;;;7.20;1.90;;;;;;;25.84;26.08;100139.02;109533;1251;57759;-63
2023/10/17 10:33:30;;;;;;;6.60;1.20;;;;;;;26.16;26.38;100137.40;109532;1251;61496;-65
2023/10/17 10:36:16;;;;;;;6.20;1.20;;;;;;;25.49;26.43;100135.60;109648;1251;73136;-63
2023/10/17 10:39:13;;;;;;;6.90;1.50;;;;;;;25.47;27.28;100131.02;109608;1251;66997;-63
2023/10/17 10:42:05;;;;;;;6.00;1.40;;;;;;;25.48;27.26;100131.98;109362;1254;72752;-62
2023/10/17 10:44:51;;;;;;;5.40;1.10;;;;;;;25.34;27.31;100131.77;109029;1253;516590;-61
2023/10/17 10:47:38;;;;;;;6.20;1.60;;;;;;;25.35;27.07;100128.91;109569;1251;60075;-63
2023/10/17 10:50:31;;;;;;;5.20;1.20;;;;;;;25.34;27.04;100123.22;109516;1251;72597;-62
2023/10/17 10:53:22;;;;;;;7.00;1.30;;;;;;;25.42;26.51;100122.81;109505;1251;67998;-65
2023/10/17 10:56:09;;;;;;;5.50;1.30;;;;;;;25.57;26.28;100115.38;109590;1251;73514;-63
2023/10/17 10:58:55;;;;;;;7.90;1.30;;;;;;;25.61;26.00;100106.26;109628;1251;58942;-63
2023/10/17 11:01:47;;;;;;;5.40;1.20;;;;;;;25.36;26.39;100114.01;109584;1251;61508;-64
2023/10/17 11:04:34;;;;;;;6.60;1.30;;;;;;;25.11;25.86;100106.69;109544;1251;71946;-63
2023/10/17 11:07:24;;;;;;;5.40;1.20;;;;;;;25.17;26.19;100112.08;109444;1251;66718;-64
2023/10/17 11:10:11;;;;;;;5.70;1.40;;;;;;;25.53;27.00;100112.72;109490;1253;72506;-62
2023/10/17 11:12:57;;;;;;;5.50;1.00;;;;;;;25.91;26.37;100098.46;109490;1251;57876;-63
2023/10/17 11:15:45;;;;;;;6.10;1.10;;;;;;;25.88;25.77;100097.94;109500;1251;60344;-62
2023/10/17 11:18:43;;;;;;;6.00;1.10;;;;;;;25.30;26.52;100103.36;109458;1253;74270;-63
2023/10/17 11:21:31;;;;;;;4.80;0.90;;;;;;;25.10;26.78;100099.79;109575;1251;67987;-64
2023/10/17 11:24:20;;;;;;;4.30;1.10;;;;;;;24.55;26.72;100092.34;109587;1251;72801;-62
2023/10/17 11:27:08;;;;;;;5.60;1.00;;;;;;;23.66;27.55;100087.34;109491;1251;57809;-62
2023/10/17 11:29:59;;;;;;;5.40;1.10;;;;;;;21.92;29.53;100086.07;109436;1251;61241;-64
2023/10/17 11:32:45;;;;;;;5.60;1.10;;;;;;;21.55;30.06;100089.33;109509;1251;73741;-63
2023/10/17 11:35:34;;;;;;;4.90;1.20;;;;;;;21.20;30.42;100095.23;109501;1251;67094;-62
2023/10/17 11:38:35;;;;;;;9.00;1.10;;;;;;;20.81;31.09;100095.59;109492;1251;72435;-63
2023/10/17 11:41:39;;;;;;;4.80;1.20;;;;;;;20.96;30.63;100095.93;109244;1254;58848;-61
2023/10/17 11:44:31;;;;;;;5.30;1.30;;;;;;;21.10;31.10;100094.06;109290;1254;60169;-63
2023/10/17 11:47:23;;;;;;;7.20;1.30;;;;;;;21.08;30.60;100095.40;109197;1254;71775;-62
2023/10/17 11:50:09;;;;;;;6.20;1.30;;;;;;;20.60;31.43;100093.55;109399;1254;67652;-62
2023/10/17 11:53:09;;;;;;;5.20;1.20;;;;;;;19.92;32.17;100091.78;109277;1254;72554;-61
2023/10/17 11:55:55;;;;;;;6.10;1.20;;;;;;;19.62;32.73;100090.60;109341;1254;57901;-65
2023/10/17 11:58:51;;;;;;;5.60;1.20;;;;;;;18.95;33.56;100088.42;109264;1254;60129;-63
2023/10/17 12:01:37;;;;;;;7.80;1.20;;;;;;;18.42;34.14;100088.91;109197;1254;74061;-63
2023/10/17 12:04:25;;;;;;;5.70;1.20;;;;;;;18.15;34.54;100086.91;109265;1254;67730;-62
2023/10/17 12:07:12;;;;;;;6.30;1.20;;;;;;;18.11;34.73;100090.89;109265;1254;72544;-63
2023/10/17 12:10:04;;;;;;;6.00;1.30;;;;;;;17.91;35.23;100085.30;109255;1254;57664;-61
2023/10/17 12:12:52;;;;;;;6.00;1.50;;;;;;;17.29;36.38;100090.67;109480;1251;58744;-63
2023/10/17 12:15:38;;;;;;;6.80;1.40;;;;;;;16.75;37.52;100093.74;109517;1251;72764;-63
2023/10/17 12:18:24;;;;;;;7.00;1.60;;;;;;;16.33;38.60;100092.77;109434;1251;66445;-64
2023/10/17 12:21:14;;;;;;;6.20;1.50;;;;;;;15.83;39.96;100092.65;109455;1251;71729;-64
2023/10/17 12:24:00;;;;;;;8.00;1.70;;;;;;;15.28;40.93;100093.11;109589;1251;57394;-65
2023/10/17 12:26:49;;;;;;;5.60;1.40;;;;;;;14.79;42.27;100095.67;109613;1251;60811;-64
2023/10/17 12:29:36;;;;;;;5.30;1.30;;;;;;;14.30;42.92;100092.70;109625;1251;72874;-65
2023/10/17 12:32:22;;;;;;;5.30;1.30;;;;;;;13.90;44.04;100088.91;109467;1253;67885;-63
2023/10/17 12:35:12;;;;;;;5.60;1.30;;;;;;;13.53;45.01;100089.88;109467;1251;71249;-65
2023/10/17 12:37:59;;;;;;;5.80;1.40;;;;;;;13.26;45.82;100089.92;109459;1252;57866;-63
2023/10/17 12:40:46;;;;;;;5.70;1.50;;;;;;;13.15;46.62;100091.40;109611;1251;61365;-62
2023/10/17 12:43:35;;;;;;;6.00;1.70;;;;;;;12.90;47.25;100096.59;109491;1251;72866;-63
2023/10/17 12:46:21;;;;;;;5.90;1.30;;;;;;;12.65;47.89;100094.34;109583;1251;67782;-63
2023/10/17 12:49:10;;;;;;;6.40;1.60;;;;;;;12.52;48.45;100089.95;109625;1251;73291;-63
2023/10/17 12:52:00;;;;;;;7.50;1.50;;;;;;;12.49;49.25;100089.27;109450;1251;57342;-65
2023/10/17 12:54:46;;;;;;;7.10;1.70;;;;;;;12.44;49.61;100092.88;109617;1251;58683;-63
2023/10/17 12:57:38;;;;;;;6.10;1.30;;;;;;;12.34;50.40;100095.15;109511;1251;71424;-63
2023/10/17 13:00:26;;;;;;;5.60;1.50;;;;;;;12.30;50.84;100095.67;109553;1251;67828;-62
2023/10/17 13:03:14;;;;;;;7.80;1.40;;;;;;;12.18;50.70;100091.73;109554;1251;73667;-63
2023/10/17 13:06:00;;;;;;;6.00;1.30;;;;;;;12.09;51.47;100093.17;109542;1251;57862;-67
2023/10/17 13:08:48;;;;;;;6.30;1.60;;;;;;;12.08;51.75;100093.39;109592;1252;59509;-61
2023/10/17 13:11:35;;;;;;;7.40;1.50;;;;;;;11.99;52.46;100089.91;109609;1251;72881;-65
2023/10/17 13:14:21;;;;;;;6.40;1.60;;;;;;;11.94;53.19;100086.02;109401;1251;67710;-63
2023/10/17 13:17:11;;;;;;;6.40;1.70;;;;;;;11.92;53.62;100083.84;109572;1251;73772;-64
2023/10/17 13:19:57;;;;;;;7.50;1.70;;;;;;;11.91;53.88;100081.06;109600;1251;57368;-64
2023/10/17 13:22:47;;;;;;;7.30;1.50;;;;;;;11.90;54.34;100075.52;109599;1251;60104;-63
2023/10/17 13:25:38;;;;;;;6.30;1.50;;;;;;;11.82;54.77;100074.73;109618;1251;71891;-65
2023/10/17 13:28:25;;;;;;;5.20;1.30;;;;;;;11.72;54.91;100078.77;109620;1251;67613;-66
2023/10/17 13:31:14;;;;;;;7.30;1.40;;;;;;;11.63;54.89;100074.38;109503;1251;73865;-63
2023/10/17 13:34:01;;;;;;;8.50;1.80;;;;;;;11.53;54.90;100070.00;109457;1251;57822;-63
2023/10/17 13:36:47;;;;;;;6.70;1.90;;;;;;;11.47;55.33;100064.48;109486;1253;60374;-65
2023/10/17 13:39:36;;;;;;;5.60;1.40;;;;;;;11.40;55.15;100063.39;109429;1251;71535;-65
2023/10/17 13:42:25;;;;;;;6.10;1.30;;;;;;;11.36;55.06;100062.17;109616;1251;66530;-63
2023/10/17 13:45:13;;;;;;;6.80;1.70;;;;;;;11.30;55.21;100059.81;109560;1251;72841;-66
2023/10/17 13:48:00;;;;;;;10.10;1.60;;;;;;;11.24;55.68;100059.84;109567;1251;57290;-64
2023/10/17 13:50:46;;;;;;;7.20;1.40;;;;;;;11.19;56.18;100056.89;109645;1251;60107;-65
2023/10/17 13:53:36;;;;;;;6.70;1.30;;;;;;;11.17;56.92;100061.55;109530;1251;73936;-64
2023/10/17 13:56:22;;;;;;;6.70;1.60;;;;;;;11.13;57.68;100059.56;109611;1251;66585;-63
2023/10/17 13:59:09;;;;;;;6.90;1.70;;;;;;;11.05;58.23;100059.42;109586;1251;72521;-65
2023/10/17 14:01:56;;;;;;;6.50;1.60;;;;;;;10.94;58.36;100053.63;109578;1251;57309;-65
2023/10/17 14:04:42;;;;;;;6.00;1.60;;;;;;;10.81;59.02;100053.86;109626;1251;57883;-63
2023/10/17 14:07:30;;;;;;;7.10;1.90;;;;;;;10.73;59.20;100055.04;109688;1251;71721;-63
2023/10/17 14:10:17;;;;;;;7.10;1.80;;;;;;;10.68;60.19;100051.55;109685;1251;67579;-63
2023/10/17 14:13:08;;;;;;;8.60;2.10;;;;;;;10.65;60.84;100052.46;109842;1251;72736;-66
2023/10/17 14:15:55;;;;;;;9.10;2.30;;;;;;;10.65;61.71;100044.35;109846;1251;57395;-65
2023/10/17 14:18:44;;;;;;;6.50;2.00;;;;;;;10.62;62.29;100044.77;109879;1251;60219;-63
2023/10/17 14:21:40;;;;;;;7.90;2.20;;;;;;;10.58;62.80;100042.95;109583;1251;71129;-63
2023/10/17 14:24:27;;;;;;;6.30;1.80;;;;;;;10.57;62.99;100036.78;109634;1251;68777;-64
2023/10/17 14:27:13;;;;;;;7.00;1.80;;;;;;;10.59;63.01;100033.80;109421;1251;72535;-63
2023/10/17 14:30:01;;;;;;;8.70;1.80;;;;;;;10.57;63.32;100029.33;109560;1251;59009;-63
2023/10/17 14:32:47;;;;;;;8.00;2.20;;;;;;;10.52;63.93;100028.32;109543;1251;61462;-65
2023/10/17 14:35:35;;;;;;;8.40;1.90;;;;;;;10.44;64.22;100027.36;109591;1251;73681;-62
2023/10/17 14:38:22;;;;;;;6.90;1.60;;;;;;;10.35;64.42;100026.63;109564;1251;66539;-65
2023/10/17 14:41:10;;;;;;;10.30;2.30;;;;;;;10.24;64.11;100023.86;109432;1251;71726;-63
2023/10/17 14:43:56;;;;;;;8.20;2.40;;;;;;;10.16;64.21;100021.83;109554;1252;57338;-64
2023/10/17 14:46:42;;;;;;;11.00;2.30;;;;;;;10.05;64.83;100017.33;109620;1251;60097;-62
2023/10/17 14:49:29;;;;;;;7.30;2.20;;;;;;;9.97;65.29;100019.15;109536;1251;72770;-64
2023/10/17 14:52:20;;;;;;;9.20;2.80;;;;;;;9.88;66.18;100022.16;109196;1253;1002411;-64
2023/10/17 14:55:14;;;;;;;8.20;2.40;;;;;;;9.78;66.51;100018.30;109390;1251;70189;-63
2023/10/17 14:58:01;;;;;;;7.40;2.20;;;;;;;9.70;67.29;100014.80;109524;1251;57769;-64
2023/10/17 15:00:52;;;;;;;7.80;2.40;;;;;;;9.64;67.85;100014.59;109468;1251;61330;-62
2023/10/17 15:03:39;;;;;;;8.50;2.40;;;;;;;9.57;68.48;100012.98;109513;1253;72922;-63